createdAt,value
2022-08-03T00:01:39.121Z,100825.16
2022-08-03T00:03:41.075Z,100831.78
2022-08-03T00:06:04.558Z,100831.16
2022-08-03T00:08:06.014Z,100824.19
2022-08-03T00:10:15.933Z,100828.84
2022-08-03T00:12:18.072Z,100824.66
2022-08-03T00:14:21.367Z,100826.72
2022-08-03T00:16:25.336Z,100830.34
2022-08-03T00:18:27.316Z,100831.59
2022-08-03T00:20:29.275Z,100830.16
2022-08-03T00:22:40.430Z,100833.44
2022-08-03T00:24:42.315Z,100832.69
2022-08-03T00:26:44.212Z,100830.25
2022-08-03T00:28:46.150Z,100839.13
2022-08-03T00:30:56.076Z,100844.34
2022-08-03T00:32:59.423Z,100833.66
2022-08-03T00:35:08.129Z,100839.91
2022-08-03T00:37:11.111Z,100842.38
2022-08-03T00:39:13.123Z,100831.72
2022-08-03T00:41:15.735Z,100832.94
2022-08-03T00:43:17.850Z,100838.22
2022-08-03T00:45:21.786Z,100841.13
2022-08-03T00:47:23.633Z,100838.56
2022-08-03T00:49:25.630Z,100841.00
2022-08-03T00:51:28.589Z,100847.25
2022-08-03T00:53:32.280Z,100842.66
2022-08-03T00:55:37.374Z,100848.84
2022-08-03T00:57:39.768Z,100852.59
2022-08-03T00:59:41.671Z,100853.50
2022-08-03T01:01:46.644Z,100840.91
2022-08-03T01:03:54.466Z,100847.41
2022-08-03T01:06:17.303Z,100849.38
2022-08-03T01:08:23.629Z,100847.41
2022-08-03T01:10:40.124Z,100843.91
2022-08-03T01:12:51.798Z,100841.41
2022-08-03T01:15:06.304Z,100844.84
2022-08-03T01:17:17.974Z,100837.50
2022-08-03T01:19:40.117Z,100847.66
2022-08-03T01:21:52.231Z,100841.13
2022-08-03T01:24:13.988Z,100840.31
2022-08-03T01:26:49.810Z,100845.53
2022-08-03T01:29:24.549Z,100844.50
2022-08-03T01:33:02.617Z,100851.66
2022-08-03T01:34:16.570Z,100844.28
2022-08-03T01:36:25.095Z,100840.28
2022-08-03T01:38:42.504Z,100847.34
2022-08-03T01:40:49.429Z,100835.50
2022-08-03T01:42:56.251Z,100844.28
2022-08-03T01:45:01.756Z,100844.28
2022-08-03T01:47:06.803Z,100845.69
2022-08-03T01:49:12.652Z,100843.47
2022-08-03T01:51:19.867Z,100834.50
2022-08-03T01:53:23.705Z,100831.09
2022-08-03T01:55:28.552Z,100835.88
2022-08-03T01:57:32.119Z,100829.19
2022-08-03T01:59:36.975Z,100823.47
2022-08-03T02:02:28.835Z,100823.22
2022-08-03T02:04:06.969Z,100817.09
2022-08-03T02:06:58.930Z,100814.59
2022-08-03T02:08:37.709Z,100822.00
2022-08-03T02:10:43.154Z,100817.13
2022-08-03T02:12:51.212Z,100816.22
2022-08-03T02:14:56.762Z,100822.00
2022-08-03T02:16:59.808Z,100818.56
2022-08-03T02:19:06.900Z,100816.72
2022-08-03T02:21:55.854Z,100817.28
2022-08-03T02:23:39.200Z,100821.59
2022-08-03T02:25:46.330Z,100822.41
2022-08-03T02:28:10.894Z,100818.06
2022-08-03T02:30:14.679Z,100822.16
2022-08-03T02:32:25.160Z,100823.53
2022-08-03T02:34:32.520Z,100823.16
2022-08-03T02:36:39.798Z,100824.44
2022-08-03T02:38:49.181Z,100821.59
2022-08-03T02:40:56.092Z,100825.94
2022-08-03T02:43:08.144Z,100828.09
2022-08-03T02:45:15.867Z,100829.41
2022-08-03T02:47:21.561Z,100824.84
2022-08-03T02:49:41.076Z,100825.22
2022-08-03T02:51:55.146Z,100833.13
2022-08-03T02:54:01.115Z,100829.31
2022-08-03T02:56:06.046Z,100833.13
2022-08-03T02:58:09.764Z,100832.84
2022-08-03T03:00:13.513Z,100832.56
2022-08-03T03:02:30.417Z,100831.66
2022-08-03T03:04:34.357Z,100837.97
2022-08-03T03:06:44.520Z,100829.31
2022-08-03T03:08:50.442Z,100832.84
2022-08-03T03:10:56.107Z,100830.88
2022-08-03T03:13:06.345Z,100839.72
2022-08-03T03:15:10.976Z,100832.19
2022-08-03T03:17:15.467Z,100837.38
2022-08-03T03:19:19.444Z,100830.69
2022-08-03T03:21:22.743Z,100837.63
2022-08-03T03:23:26.393Z,100838.50
2022-08-03T03:25:32.362Z,100843.88
2022-08-03T03:27:35.262Z,100845.84
2022-08-03T03:29:43.315Z,100839.88
2022-08-03T03:31:45.583Z,100842.94
2022-08-03T03:33:48.389Z,100837.06
2022-08-03T03:35:57.908Z,100848.22
2022-08-03T03:37:59.925Z,100832.75
2022-08-03T03:40:09.179Z,100842.91
2022-08-03T03:42:12.265Z,100842.78
2022-08-03T03:44:14.396Z,100845.56
2022-08-03T03:46:16.679Z,100843.53
2022-08-03T03:48:20.341Z,100847.91
2022-08-03T03:50:24.271Z,100847.31
2022-08-03T03:52:26.236Z,100850.78
2022-08-03T03:54:39.866Z,100845.50
2022-08-03T03:56:42.896Z,100841.81
2022-08-03T03:58:44.908Z,100846.69
2022-08-03T04:00:56.016Z,100845.47
2022-08-03T04:02:58.106Z,100849.84
2022-08-03T04:05:18.832Z,100849.94
2022-08-03T04:07:43.188Z,100849.03
2022-08-03T04:10:14.891Z,100853.38
2022-08-03T04:12:19.859Z,100855.91
2022-08-03T04:14:33.970Z,100858.22
2022-08-03T04:16:43.651Z,100858.06
2022-08-03T04:18:54.228Z,100857.41
2022-08-03T04:21:01.791Z,100860.03
2022-08-03T04:23:04.933Z,100864.19
2022-08-03T04:25:19.681Z,100859.41
2022-08-03T04:27:25.599Z,100872.56
2022-08-03T04:29:31.097Z,100871.63
2022-08-03T04:31:33.924Z,100862.69
2022-08-03T04:33:39.073Z,100868.59
2022-08-03T04:36:02.222Z,100866.41
2022-08-03T04:38:07.924Z,100870.41
2022-08-03T04:40:14.811Z,100873.56
2022-08-03T04:42:20.135Z,100884.00
2022-08-03T04:44:28.178Z,100878.19
2022-08-03T04:46:34.994Z,100881.94
2022-08-03T04:48:37.642Z,100879.44
2022-08-03T04:50:41.206Z,100879.84
2022-08-03T04:52:43.441Z,100879.38
2022-08-03T04:54:50.699Z,100892.50
2022-08-03T04:56:53.036Z,100880.38
2022-08-03T04:58:55.021Z,100890.19
2022-08-03T05:00:56.915Z,100885.78
2022-08-03T05:02:59.058Z,100891.84
2022-08-03T05:05:02.076Z,100894.34
2022-08-03T05:07:11.719Z,100898.72
2022-08-03T05:09:14.665Z,100889.34
2022-08-03T05:11:18.574Z,100889.78
2022-08-03T05:13:20.505Z,100901.47
2022-08-03T05:15:22.731Z,100900.03
2022-08-03T05:17:24.622Z,100890.69
2022-08-03T05:19:26.714Z,100896.09
2022-08-03T05:21:51.886Z,100900.06
2022-08-03T05:23:50.641Z,100899.03
2022-08-03T05:25:52.528Z,100905.28
2022-08-03T05:27:54.537Z,100903.00
2022-08-03T05:29:56.547Z,100898.84
2022-08-03T05:32:18.828Z,100901.34
2022-08-03T05:34:21.005Z,100900.47
2022-08-03T05:36:25.034Z,100901.94
2022-08-03T05:38:33.172Z,100905.28
2022-08-03T05:40:36.382Z,100902.56
2022-08-03T05:42:39.130Z,100911.75
2022-08-03T05:44:42.400Z,100908.22
2022-08-03T05:46:44.288Z,100911.97
2022-08-03T05:48:46.428Z,100915.16
2022-08-03T05:50:48.506Z,100910.13
2022-08-03T05:52:50.771Z,100917.41
2022-08-03T05:54:56.877Z,100910.41
2022-08-03T05:57:00.606Z,100918.06
2022-08-03T05:59:16.533Z,100906.22
2022-08-03T06:01:24.782Z,100911.09
2022-08-03T06:03:27.084Z,100909.38
2022-08-03T06:05:30.073Z,100912.16
2022-08-03T06:07:32.959Z,100909.63
2022-08-03T06:10:36.105Z,100910.56
2022-08-03T06:11:58.831Z,100909.00
2022-08-03T06:14:00.881Z,100905.56
2022-08-03T06:16:03.003Z,100910.28
2022-08-03T06:18:05.006Z,100914.91
2022-08-03T06:20:08.691Z,100908.22
2022-08-03T06:22:10.723Z,100916.78
2022-08-03T06:24:12.945Z,100914.84
2022-08-03T06:26:17.349Z,100915.91
2022-08-03T06:28:53.165Z,100919.06
2022-08-03T06:30:48.222Z,100917.59
2022-08-03T06:32:52.537Z,100918.44
2022-08-03T06:34:54.607Z,100918.19
2022-08-03T06:37:01.733Z,100919.00
2022-08-03T06:39:05.461Z,100907.44
2022-08-03T06:41:07.499Z,100905.53
2022-08-03T06:43:12.727Z,100906.28
2022-08-03T06:45:16.064Z,100903.41
2022-08-03T06:47:18.995Z,100904.50
2022-08-03T06:49:20.968Z,100906.31
2022-08-03T06:52:03.742Z,100897.94
2022-08-03T06:53:45.878Z,100905.88
2022-08-03T06:55:52.445Z,100905.00
2022-08-03T06:57:59.933Z,100904.25
2022-08-03T07:00:10.829Z,100905.19
2022-08-03T07:02:19.065Z,100901.00
2022-08-03T07:04:21.489Z,100903.06
2022-08-03T07:06:23.617Z,100921.03
2022-08-03T07:08:34.077Z,100915.19
2022-08-03T07:10:36.518Z,100911.84
2022-08-03T07:12:52.604Z,100907.19
2022-08-03T07:15:02.691Z,100922.81
2022-08-03T07:17:11.612Z,100913.78
2022-08-03T07:19:14.129Z,100918.16
2022-08-03T07:21:17.290Z,100919.25
2022-08-03T07:23:19.491Z,100923.72
2022-08-03T07:25:22.691Z,100925.31
2022-08-03T07:27:27.158Z,100919.19
2022-08-03T07:29:29.644Z,100914.09
2022-08-03T07:31:38.762Z,100918.19
2022-08-03T07:33:40.661Z,100916.94
2022-08-03T07:35:42.844Z,100912.84
2022-08-03T07:37:54.308Z,100916.44
2022-08-03T07:39:58.394Z,100905.16
2022-08-03T07:42:00.330Z,100910.75
2022-08-03T07:44:02.349Z,100916.75
2022-08-03T07:46:04.251Z,100918.31
2022-08-03T07:48:12.167Z,100913.13
2022-08-03T07:50:14.689Z,100914.88
2022-08-03T07:52:35.458Z,100920.06
2022-08-03T07:54:39.383Z,100916.75
2022-08-03T07:56:41.389Z,100924.00
2022-08-03T07:58:52.262Z,100915.53
2022-08-03T08:00:54.469Z,100919.13
2022-08-03T08:02:56.524Z,100921.53
2022-08-03T08:05:03.539Z,100923.97
2022-08-03T08:07:10.002Z,100922.84
2022-08-03T08:09:19.019Z,100920.25
2022-08-03T08:11:22.522Z,100924.09
2022-08-03T08:13:25.076Z,100926.22
2022-08-03T08:15:28.535Z,100926.00
2022-08-03T08:17:30.624Z,100930.81
2022-08-03T08:19:32.855Z,100926.34
2022-08-03T08:21:54.018Z,100936.06
2022-08-03T08:24:10.743Z,100935.19
2022-08-03T08:26:17.311Z,100932.38
2022-08-03T08:28:32.833Z,100943.41
2022-08-03T08:30:35.705Z,100937.44
2022-08-03T08:32:37.738Z,100936.09
2022-08-03T08:34:40.615Z,100935.28
2022-08-03T08:36:42.892Z,100937.84
2022-08-03T08:38:47.544Z,100929.50
2022-08-03T08:40:51.017Z,100927.06
2022-08-03T08:43:00.176Z,100924.50
2022-08-03T08:45:02.523Z,100928.25
2022-08-03T08:47:08.450Z,100922.63
2022-08-03T08:49:12.792Z,100924.63
2022-08-03T08:51:19.735Z,100921.34
2022-08-03T08:53:28.147Z,100917.44
2022-08-03T08:55:58.384Z,100935.72
2022-08-03T08:58:02.359Z,100931.28
2022-08-03T09:00:14.696Z,100920.72
2022-08-03T09:02:16.857Z,100934.59
2022-08-03T09:04:20.457Z,100922.91
2022-08-03T09:06:24.633Z,100927.34
2022-08-03T09:08:26.740Z,100926.44
2022-08-03T09:10:29.891Z,100927.72
2022-08-03T09:12:41.991Z,100923.63
2022-08-03T09:15:00.844Z,100923.41
2022-08-03T09:17:06.445Z,100922.25
2022-08-03T09:19:14.159Z,100922.06
2022-08-03T09:21:31.782Z,100922.16
2022-08-03T09:24:04.708Z,100929.63
2022-08-03T09:26:09.126Z,100923.56
2022-08-03T09:28:59.761Z,100926.31
2022-08-03T09:30:59.512Z,100925.22
2022-08-03T09:33:03.276Z,100925.50
2022-08-03T09:35:05.803Z,100921.34
2022-08-03T09:37:23.296Z,100919.91
2022-08-03T09:39:46.035Z,100920.28
2022-08-03T09:42:09.309Z,100913.28
2022-08-03T09:44:24.095Z,100926.81
2022-08-03T09:46:31.958Z,100916.88
2022-08-03T09:48:37.500Z,100917.34
2022-08-03T09:50:58.544Z,100917.38
2022-08-03T09:53:12.509Z,100917.72
2022-08-03T09:56:33.878Z,100916.84
2022-08-03T09:57:38.187Z,100916.28
2022-08-03T09:59:41.633Z,100917.06
2022-08-03T10:01:47.212Z,100916.44
2022-08-03T10:04:03.868Z,100908.94
2022-08-03T10:06:28.829Z,100915.88
2022-08-03T10:08:32.612Z,100907.81
2022-08-03T10:10:44.255Z,100905.00
2022-08-03T10:12:52.637Z,100913.66
2022-08-03T10:14:56.397Z,100911.28
2022-08-03T10:16:58.331Z,100909.00
2022-08-03T10:19:00.309Z,100913.41
2022-08-03T10:21:10.714Z,100905.13
2022-08-03T10:23:15.268Z,100904.44
2022-08-03T10:25:19.301Z,100913.47
2022-08-03T10:27:23.653Z,100912.69
2022-08-03T10:29:29.325Z,100910.75
2022-08-03T10:31:38.951Z,100908.25
2022-08-03T10:33:59.651Z,100916.47
2022-08-03T10:36:03.234Z,100906.59
2022-08-03T10:38:12.133Z,100907.00
2022-08-03T10:40:33.475Z,100907.19
2022-08-03T10:42:41.686Z,100910.44
2022-08-03T10:44:43.891Z,100907.72
2022-08-03T10:46:51.176Z,100909.47
2022-08-03T10:48:54.909Z,100910.44
2022-08-03T10:50:57.156Z,100908.56
2022-08-03T10:53:07.225Z,100905.25
2022-08-03T10:55:56.995Z,100906.84
2022-08-03T10:58:00.710Z,100903.22
2022-08-03T11:00:06.457Z,100901.69
2022-08-03T11:02:10.156Z,100902.31
2022-08-03T11:04:17.083Z,100899.03
2022-08-03T11:06:25.862Z,100900.13
2022-08-03T11:08:35.649Z,100891.03
2022-08-03T11:10:37.784Z,100900.53
2022-08-03T11:12:40.310Z,100906.03
2022-08-03T11:14:49.348Z,100899.09
2022-08-03T11:17:07.590Z,100896.53
2022-08-03T11:19:22.641Z,100894.88
2022-08-03T11:21:52.013Z,100882.50
2022-08-03T11:24:05.592Z,100890.22
2022-08-03T11:26:13.387Z,100888.00
2022-08-03T11:28:29.055Z,100880.59
2022-08-03T11:30:32.570Z,100885.81
2022-08-03T11:32:42.398Z,100881.13
2022-08-03T11:35:16.813Z,100880.56
2022-08-03T11:37:28.819Z,100878.34
2022-08-03T11:39:45.979Z,100879.19
2022-08-03T11:41:48.006Z,100859.00
2022-08-03T11:43:52.025Z,100858.78
2022-08-03T11:46:06.329Z,100864.25
2022-08-03T11:48:16.804Z,100865.78
2022-08-03T11:50:20.231Z,100857.94
2022-08-03T11:52:26.990Z,100865.63
2022-08-03T11:54:31.908Z,100854.69
2022-08-03T11:56:50.491Z,100849.78
2022-08-03T11:59:17.983Z,100857.50
2022-08-03T12:01:22.978Z,100854.28
2022-08-03T12:03:25.187Z,100853.00
2022-08-03T12:05:51.262Z,100845.16
2022-08-03T12:08:03.714Z,100847.66
2022-08-03T12:10:09.292Z,100851.88
2022-08-03T12:12:12.063Z,100834.28
2022-08-03T12:14:50.242Z,100846.97
2022-08-03T12:16:49.037Z,100845.50
2022-08-03T12:19:02.682Z,100840.59
2022-08-03T12:21:07.801Z,100844.19
2022-08-03T12:23:13.106Z,100839.50
2022-08-03T12:25:39.765Z,100840.59
2022-08-03T12:27:42.015Z,100848.50
2022-08-03T12:29:44.287Z,100847.78
2022-08-03T12:32:01.799Z,100841.00
2022-08-03T12:34:07.340Z,100842.13
2022-08-03T12:36:11.249Z,100854.22
2022-08-03T12:38:14.097Z,100850.78
2022-08-03T12:40:28.136Z,100851.00
2022-08-03T12:42:35.080Z,100850.59
2022-08-03T12:44:38.234Z,100845.13
2022-08-03T12:46:47.399Z,100853.66
2022-08-03T12:49:05.043Z,100844.13
2022-08-03T12:51:11.658Z,100839.50
2022-08-03T12:53:28.951Z,100835.41
2022-08-03T12:56:04.827Z,100839.78
2022-08-03T12:58:04.866Z,100831.78
2022-08-03T13:00:28.777Z,100831.75
2022-08-03T13:02:33.784Z,100831.75
2022-08-03T13:04:37.471Z,100833.41
2022-08-03T13:06:41.556Z,100826.44
2022-08-03T13:08:46.229Z,100829.25
2022-08-03T13:10:48.833Z,100827.84
2022-08-03T13:12:50.837Z,100824.78
2022-08-03T13:14:56.279Z,100830.34
2022-08-03T13:17:03.571Z,100822.91
2022-08-03T13:19:06.453Z,100823.75
2022-08-03T13:21:20.776Z,100819.41
2022-08-03T13:23:22.932Z,100819.69
2022-08-03T13:25:24.885Z,100810.00
2022-08-03T13:28:04.478Z,100818.53
2022-08-03T13:29:51.420Z,100818.00
2022-08-03T13:31:55.353Z,100813.38
2022-08-03T13:33:58.293Z,100811.72
2022-08-03T13:36:00.259Z,100790.75
2022-08-03T13:38:05.356Z,100806.75
2022-08-03T13:40:08.725Z,100797.38
2022-08-03T13:42:13.702Z,100802.31
2022-08-03T13:44:29.090Z,100802.59
2022-08-03T13:46:31.828Z,100799.56
2022-08-03T13:48:37.104Z,100797.34
2022-08-03T13:50:43.201Z,100796.81
2022-08-03T13:52:51.057Z,100797.09
2022-08-03T13:54:54.096Z,100805.66
2022-08-03T13:57:00.418Z,100797.91
2022-08-03T13:59:22.911Z,100803.97
2022-08-03T14:01:53.662Z,100797.66
2022-08-03T14:03:50.672Z,100803.16
2022-08-03T14:05:52.767Z,100799.31
2022-08-03T14:07:56.844Z,100799.56
2022-08-03T14:10:09.463Z,100791.56
2022-08-03T14:12:12.423Z,100787.72
2022-08-03T14:14:15.588Z,100788.78
2022-08-03T14:16:17.655Z,100784.41
2022-08-03T14:18:28.657Z,100783.59
2022-08-03T14:20:37.994Z,100782.75
2022-08-03T14:22:41.641Z,100783.06
2022-08-03T14:24:44.763Z,100786.06
2022-08-03T14:26:46.833Z,100783.00
2022-08-03T14:28:49.035Z,100769.00
2022-08-03T14:30:53.140Z,100782.22
2022-08-03T14:32:57.967Z,100781.66
2022-08-03T14:35:03.871Z,100770.09
2022-08-03T14:37:06.191Z,100774.78
2022-08-03T14:39:11.176Z,100773.72
2022-08-03T14:41:20.144Z,100768.16
2022-08-03T14:43:24.813Z,100765.94
2022-08-03T14:45:28.022Z,100768.72
2022-08-03T14:47:33.558Z,100757.69
2022-08-03T14:50:34.540Z,100753.00
2022-08-03T14:52:24.435Z,100753.31
2022-08-03T14:54:31.114Z,100754.94
2022-08-03T14:56:33.106Z,100757.41
2022-08-03T14:58:36.094Z,100765.94
2022-08-03T15:00:40.086Z,100764.06
2022-08-03T15:02:42.047Z,100765.44
2022-08-03T15:04:50.045Z,100758.28
2022-08-03T15:06:58.050Z,100760.47
2022-08-03T15:09:21.242Z,100770.34
2022-08-03T15:11:25.051Z,100758.78
2022-08-03T15:13:27.198Z,100756.63
2022-08-03T15:15:30.626Z,100757.75
2022-08-03T15:17:32.859Z,100751.94
2022-08-03T15:20:00.465Z,100760.50
2022-08-03T15:22:01.046Z,100748.06
2022-08-03T15:24:05.216Z,100747.25
2022-08-03T15:26:32.964Z,100753.56
2022-08-03T15:28:31.776Z,100749.47
2022-08-03T15:30:37.112Z,100752.75
2022-08-03T15:32:39.063Z,100751.38
2022-08-03T15:34:51.459Z,100752.47
2022-08-03T15:36:54.434Z,100751.09
2022-08-03T15:38:56.445Z,100751.63
2022-08-03T15:40:59.391Z,100753.84
2022-08-03T15:43:01.988Z,100748.59
2022-08-03T15:45:04.554Z,100753.56
2022-08-03T15:47:06.552Z,100751.94
2022-08-03T15:49:11.688Z,100752.47
2022-08-03T15:51:14.286Z,100738.44
2022-08-03T15:53:16.206Z,100737.59
2022-08-03T15:55:19.241Z,100737.88
2022-08-03T15:57:22.712Z,100740.91
2022-08-03T15:59:25.014Z,100739.53
2022-08-03T16:01:28.542Z,100729.63
2022-08-03T16:03:37.309Z,100730.72
2022-08-03T16:05:39.485Z,100727.66
2022-08-03T16:08:03.931Z,100731.56
2022-08-03T16:10:07.348Z,100730.72
2022-08-03T16:12:16.002Z,100726.03
2022-08-03T16:14:33.335Z,100724.94
2022-08-03T16:16:41.304Z,100724.94
2022-08-03T16:18:43.289Z,100726.31
2022-08-03T16:20:45.743Z,100722.16
2022-08-03T16:22:49.356Z,100718.06
2022-08-03T16:24:52.935Z,100721.91
2022-08-03T16:26:55.104Z,100721.63
2022-08-03T16:29:04.205Z,100716.66
2022-08-03T16:31:13.842Z,100718.84
2022-08-03T16:33:17.062Z,100724.34
2022-08-03T16:35:21.157Z,100713.91
2022-08-03T16:37:39.808Z,100710.31
2022-08-03T16:39:41.910Z,100716.94
2022-08-03T16:41:54.302Z,100711.91
2022-08-03T16:44:08.027Z,100712.44
2022-08-03T16:46:11.888Z,100708.06
2022-08-03T16:48:16.125Z,100708.06
2022-08-03T16:50:20.046Z,100717.34
2022-08-03T16:52:22.861Z,100712.97
2022-08-03T16:54:24.905Z,100712.09
2022-08-03T16:56:30.132Z,100715.41
2022-08-03T16:58:42.283Z,100714.31
2022-08-03T17:00:47.271Z,100712.94
2022-08-03T17:02:56.848Z,100715.69
2022-08-03T17:04:58.804Z,100721.75
2022-08-03T17:07:02.439Z,100720.34
2022-08-03T17:09:12.497Z,100723.34
2022-08-03T17:11:17.561Z,100723.75
2022-08-03T17:13:22.056Z,100720.97
2022-08-03T17:15:38.460Z,100725.06
2022-08-03T17:18:07.991Z,100734.28
2022-08-03T17:20:15.621Z,100729.38
2022-08-03T17:22:23.430Z,100730.81
2022-08-03T17:24:33.380Z,100733.25
2022-08-03T17:26:43.462Z,100734.84
2022-08-03T17:28:57.425Z,100727.13
2022-08-03T17:31:23.373Z,100741.28
2022-08-03T17:33:35.521Z,100746.88
2022-08-03T17:35:38.521Z,100744.59
2022-08-03T17:37:57.607Z,100746.75
2022-08-03T17:40:03.678Z,100747.84
2022-08-03T17:42:29.558Z,100743.31
2022-08-03T17:44:41.247Z,100755.56
2022-08-03T17:46:47.946Z,100763.56
2022-08-03T17:48:51.962Z,100766.88
2022-08-03T17:51:00.843Z,100756.50
2022-08-03T17:53:15.372Z,100769.13
2022-08-03T17:55:57.535Z,100771.22
2022-08-03T17:58:02.256Z,100771.75
2022-08-03T18:00:45.814Z,100773.78
2022-08-03T18:03:13.227Z,100784.06
2022-08-03T18:05:18.549Z,100776.75
2022-08-03T18:07:41.342Z,100782.97
2022-08-03T18:10:06.302Z,100784.59
2022-08-03T18:12:15.311Z,100787.56
2022-08-03T18:14:29.708Z,100782.69
2022-08-03T18:16:38.861Z,100789.84
2022-08-03T18:18:45.036Z,100787.56
2022-08-03T18:20:51.882Z,100787.63
2022-08-03T18:22:55.257Z,100792.50
2022-08-03T18:24:59.206Z,100796.75
2022-08-03T18:27:06.508Z,100795.94
2022-08-03T18:29:12.506Z,100798.66
2022-08-03T18:31:59.944Z,100803.63
2022-08-03T18:34:16.178Z,100808.41
2022-08-03T18:36:03.864Z,100809.84
2022-08-03T18:38:10.435Z,100809.97
2022-08-03T18:40:13.488Z,100814.78
2022-08-03T18:42:25.884Z,100825.25
2022-08-03T18:44:52.793Z,100823.00
2022-08-03T18:47:16.112Z,100828.88
2022-08-03T18:49:24.518Z,100822.47
2022-08-03T18:51:43.375Z,100824.63
2022-08-03T18:54:11.869Z,100832.94
2022-08-03T18:56:54.032Z,100835.97
2022-08-03T19:01:57.525Z,100836.50
2022-08-03T19:04:14.384Z,100835.69
2022-08-03T19:06:23.941Z,100835.09
2022-08-03T19:08:48.770Z,100832.06
2022-08-03T19:11:06.083Z,100833.75
2022-08-03T19:13:38.384Z,100836.16
2022-08-03T19:15:51.412Z,100836.72
2022-08-03T19:17:57.785Z,100837.72
2022-08-03T19:20:03.967Z,100842.41
2022-08-03T19:22:11.217Z,100842.66
2022-08-03T19:24:14.323Z,100845.06
2022-08-03T19:26:31.048Z,100840.00
2022-08-03T19:28:35.381Z,100837.84
2022-08-03T19:30:40.728Z,100836.34
2022-08-03T19:32:50.691Z,100838.03
2022-08-03T19:34:53.569Z,100838.16
2022-08-03T19:36:59.790Z,100833.38
2022-08-03T19:39:05.550Z,100839.13
2022-08-03T19:41:18.363Z,100838.69
2022-08-03T19:43:33.100Z,100834.97
2022-08-03T19:45:52.685Z,100845.00
2022-08-03T19:48:12.203Z,100838.94
2022-08-03T19:50:15.719Z,100840.03
2022-08-03T19:52:24.203Z,100838.03
2022-08-03T19:54:32.290Z,100830.72
2022-08-03T19:56:42.583Z,100836.22
2022-08-03T19:58:46.802Z,100837.50
2022-08-03T20:00:56.080Z,100837.13
2022-08-03T20:02:58.944Z,100837.81
2022-08-03T20:05:02.214Z,100843.91
2022-08-03T20:07:05.762Z,100847.63
2022-08-03T20:09:12.227Z,100843.66
2022-08-03T20:11:20.677Z,100847.59
2022-08-03T20:13:39.031Z,100847.81
2022-08-03T20:16:08.991Z,100841.09
2022-08-03T20:18:16.940Z,100851.59
2022-08-03T20:20:32.652Z,100852.22
2022-08-03T20:22:39.191Z,100851.22
2022-08-03T20:24:52.725Z,100847.53
2022-08-03T20:27:05.177Z,100849.16
2022-08-03T20:29:17.286Z,100847.06
2022-08-03T20:31:32.440Z,100846.44
2022-08-03T20:33:46.687Z,100847.78
2022-08-03T20:35:56.724Z,100849.84
2022-08-03T20:38:13.127Z,100845.84
2022-08-03T20:40:27.914Z,100844.75
2022-08-03T20:42:31.898Z,100849.22
2022-08-03T20:44:42.626Z,100853.88
2022-08-03T20:47:00.793Z,100850.34
2022-08-03T20:49:13.626Z,100847.03
2022-08-03T20:51:49.200Z,100851.00
2022-08-03T20:54:00.219Z,100853.56
2022-08-03T20:56:09.698Z,100851.69
2022-08-03T20:58:12.799Z,100852.31
2022-08-03T21:00:22.253Z,100857.34
2022-08-03T21:02:30.053Z,100859.03
2022-08-03T21:04:40.523Z,100855.03
2022-08-03T21:07:01.967Z,100857.56
2022-08-03T21:09:17.948Z,100858.63
2022-08-03T21:11:28.240Z,100859.06
2022-08-03T21:13:00.964Z,100835.47
2022-08-03T21:13:55.417Z,100862.81
2022-08-03T21:16:12.455Z,100865.53
2022-08-03T21:18:19.273Z,100860.72
2022-08-03T21:20:31.177Z,100856.56
2022-08-03T21:22:37.470Z,100858.25
2022-08-03T21:24:43.203Z,100858.84
2022-08-03T21:26:48.866Z,100858.66
2022-08-03T21:28:54.181Z,100861.63
2022-08-03T21:33:37.906Z,100860.38
2022-08-03T21:35:51.053Z,100860.41
2022-08-03T21:38:14.238Z,100862.16
2022-08-03T21:40:20.520Z,100867.81
2022-08-03T21:42:25.557Z,100864.38
2022-08-03T21:44:29.608Z,100860.91
2022-08-03T21:46:44.311Z,100848.69
2022-08-03T21:50:05.077Z,100865.38
2022-08-03T21:51:34.980Z,100859.00
2022-08-03T21:54:03.206Z,100856.81
2022-08-03T21:56:21.265Z,100863.28
2022-08-03T21:58:31.543Z,100860.44
2022-08-03T22:00:43.945Z,100858.25
2022-08-03T22:03:15.202Z,100864.28
2022-08-03T22:05:28.850Z,100869.28
2022-08-03T22:07:46.424Z,100864.84
2022-08-03T22:09:50.929Z,100872.59
2022-08-03T22:11:55.572Z,100871.59
2022-08-03T22:13:57.615Z,100865.47
2022-08-03T22:15:59.917Z,100867.38
2022-08-03T22:18:04.986Z,100864.19
2022-08-03T22:20:10.749Z,100861.69
2022-08-03T22:22:17.917Z,100862.22
2022-08-03T22:24:24.172Z,100859.13
2022-08-03T22:26:32.444Z,100857.13
2022-08-03T22:28:44.833Z,100864.41
2022-08-03T22:30:48.289Z,100862.06
2022-08-03T22:32:54.114Z,100859.78
2022-08-03T22:34:59.665Z,100856.81
2022-08-03T22:37:05.166Z,100853.41
2022-08-03T22:39:07.897Z,100860.53
2022-08-03T22:41:09.888Z,100854.88
2022-08-03T22:43:11.950Z,100851.91
2022-08-03T22:46:08.014Z,100850.84
2022-08-03T22:47:41.335Z,100855.84
2022-08-03T22:49:44.090Z,100854.63
2022-08-03T22:51:47.013Z,100854.16
2022-08-03T22:53:51.718Z,100854.09
2022-08-03T22:55:54.068Z,100853.13
2022-08-03T22:57:56.460Z,100853.38
2022-08-03T22:59:59.045Z,100857.50
2022-08-03T23:02:19.996Z,100862.19
2022-08-03T23:04:25.382Z,100859.63
2022-08-03T23:06:31.206Z,100851.75
2022-08-03T23:08:34.221Z,100854.19
2022-08-03T23:10:43.685Z,100854.72
2022-08-03T23:12:50.176Z,100848.44
2022-08-03T23:14:56.393Z,100858.50
2022-08-03T23:17:03.508Z,100856.69
2022-08-03T23:19:17.105Z,100850.78
2022-08-03T23:22:00.077Z,100856.78
2022-08-03T23:23:53.128Z,100854.19
2022-08-03T23:26:01.841Z,100854.34
2022-08-03T23:28:06.045Z,100852.91
2022-08-03T23:30:10.285Z,100850.19
2022-08-03T23:32:13.387Z,100855.88
2022-08-03T23:34:36.245Z,100853.06
2022-08-03T23:36:40.845Z,100848.00
2022-08-03T23:38:43.797Z,100846.63
2022-08-03T23:40:46.799Z,100848.56
2022-08-03T23:42:53.542Z,100852.03
2022-08-03T23:44:59.326Z,100845.81
2022-08-03T23:47:07.756Z,100848.16
2022-08-03T23:49:10.718Z,100849.72
2022-08-03T23:51:50.644Z,100849.16
2022-08-03T23:54:03.818Z,100847.34
2022-08-03T23:56:08.688Z,100846.09
2022-08-03T23:58:25.489Z,100851.00
